Time;durP1;ratioP1;P1;durP2;ratioP2;P2;SDS_P1;SDS_P2;PMS_P1;PMS_P2;Temp;Humidity;BMP_temperature;BMP_pressure;BME280_temperature;BME280_humidity;BME280_pressure;Samples;Min_cycle;Max_cycle;Signal;HPM_P1;HPM_P2
2023/12/10 00:00:56;;;;;;;7.37;5.60;;;3.70;99.90;;;;;;5001530;28;20226;-82
2023/12/10 00:03:25;;;;;;;8.30;5.73;;;3.70;99.90;;;;;;5026435;28;20263;-82
2023/12/10 00:05:52;;;;;;;8.40;5.43;;;3.70;99.90;;;;;;5024556;28;20228;-82
2023/12/10 00:08:20;;;;;;;7.13;5.33;;;3.70;99.90;;;;;;5022908;28;20249;-82
2023/12/10 00:10:47;;;;;;;6.70;5.57;;;3.70;99.90;;;;;;5010998;28;20228;-83
2023/12/10 00:13:15;;;;;;;6.90;5.20;;;3.70;99.90;;;;;;5022076;28;20228;-83
2023/12/10 00:15:42;;;;;;;6.63;5.60;;;3.70;99.90;;;;;;5025724;28;20235;-83
2023/12/10 00:18:09;;;;;;;8.10;5.73;;;3.70;99.90;;;;;;5025601;28;20225;-83
2023/12/10 00:20:37;;;;;;;6.87;5.30;;;3.70;99.90;;;;;;5027511;28;20423;-83
2023/12/10 00:23:04;;;;;;;6.43;5.47;;;3.70;99.90;;;;;;5029577;28;20213;-83
2023/12/10 00:25:31;;;;;;;8.60;5.37;;;3.70;99.90;;;;;;5023256;28;20233;-82
2023/12/10 00:27:58;;;;;;;7.83;5.90;;;3.60;99.90;;;;;;5010087;28;20495;-82
2023/12/10 00:30:25;;;;;;;7.67;5.20;;;3.70;99.90;;;;;;5022183;28;20233;-82
2023/12/10 00:32:53;;;;;;;8.53;6.07;;;3.60;99.90;;;;;;5006197;28;20225;-81
2023/12/10 00:35:20;;;;;;;7.80;5.90;;;3.60;99.90;;;;;;5026004;28;20432;-82
2023/12/10 00:37:48;;;;;;;7.93;6.17;;;3.60;99.90;;;;;;5032202;28;20786;-82
2023/12/10 00:40:15;;;;;;;7.43;5.90;;;3.60;99.90;;;;;;5021331;28;20219;-82
2023/12/10 00:42:43;;;;;;;7.93;6.10;;;3.60;99.90;;;;;;5010805;28;20772;-82
2023/12/10 00:45:10;;;;;;;6.73;5.50;;;3.60;99.90;;;;;;4997873;28;20233;-82
2023/12/10 00:47:37;;;;;;;8.40;5.50;;;3.70;99.90;;;;;;5006578;28;20242;-82
2023/12/10 00:50:05;;;;;;;8.07;6.23;;;3.60;99.90;;;;;;5001645;28;20240;-82
2023/12/10 00:52:32;;;;;;;9.67;6.40;;;3.60;99.90;;;;;;5010848;28;20226;-82
2023/12/10 00:55:00;;;;;;;9.33;6.60;;;3.60;99.90;;;;;;5000460;28;20229;-82
2023/12/10 00:57:27;;;;;;;8.90;6.40;;;3.60;99.90;;;;;;4997269;28;20245;-82
2023/12/10 00:59:54;;;;;;;9.03;6.50;;;3.70;99.90;;;;;;5000567;28;20227;-82
2023/12/10 01:02:20;;;;;;;8.83;6.30;;;3.60;99.90;;;;;;5011304;28;20726;-82
2023/12/10 01:04:47;;;;;;;8.97;6.50;;;3.70;99.90;;;;;;5012811;28;20621;-82
2023/12/10 01:07:16;;;;;;;7.37;6.40;;;3.70;99.90;;;;;;5024684;28;20256;-82
2023/12/10 01:09:43;;;;;;;8.20;6.20;;;3.70;99.90;;;;;;5009239;28;20225;-82
2023/12/10 01:12:11;;;;;;;10.03;6.70;;;3.60;99.90;;;;;;5012051;28;20218;-82
2023/12/10 01:14:39;;;;;;;9.10;6.50;;;3.70;99.90;;;;;;5024367;28;20324;-82
2023/12/10 01:17:08;;;;;;;9.07;6.40;;;3.70;99.90;;;;;;5007904;28;20256;-82
2023/12/10 01:19:34;;;;;;;19.43;7.20;;;3.70;99.90;;;;;;5018547;28;20226;-82
2023/12/10 01:22:01;;;;;;;9.03;6.80;;;3.70;99.90;;;;;;5022168;28;20600;-82
2023/12/10 01:24:28;;;;;;;8.90;6.23;;;3.70;99.90;;;;;;5023071;28;20234;-82
2023/12/10 01:26:55;;;;;;;6.43;5.63;;;3.70;99.90;;;;;;4988691;28;20369;-82
2023/12/10 01:29:25;;;;;;;8.17;6.60;;;3.70;99.90;;;;;;5000201;28;20300;-82
2023/12/10 01:31:52;;;;;;;11.73;6.40;;;3.70;99.90;;;;;;4999491;28;20321;-81
2023/12/10 01:34:19;;;;;;;36.53;7.87;;;3.70;99.90;;;;;;5006822;28;20261;-83
2023/12/10 01:36:45;;;;;;;8.73;6.30;;;3.80;99.90;;;;;;5006194;28;20240;-82
2023/12/10 01:39:14;;;;;;;7.63;6.23;;;3.70;99.90;;;;;;5005076;28;20288;-82
2023/12/10 01:41:41;;;;;;;7.27;6.07;;;3.80;99.90;;;;;;5005689;28;20300;-83
2023/12/10 01:44:09;;;;;;;11.13;6.23;;;3.80;99.90;;;;;;5000559;28;20226;-82
2023/12/10 01:46:38;;;;;;;8.47;5.97;;;3.80;99.90;;;;;;5010978;28;20999;-82
2023/12/10 01:49:07;;;;;;;10.63;6.20;;;3.80;99.90;;;;;;5024025;28;20249;-82
2023/12/10 01:51:35;;;;;;;9.40;5.73;;;3.80;99.90;;;;;;5019110;28;20251;-82
2023/12/10 01:54:02;;;;;;;8.77;5.93;;;3.80;99.90;;;;;;5003549;28;20254;-82
2023/12/10 01:56:32;;;;;;;9.10;5.80;;;3.80;99.90;;;;;;4992412;28;20238;-82
2023/12/10 01:58:59;;;;;;;6.63;5.90;;;3.80;99.90;;;;;;4989483;28;20234;-83
2023/12/10 02:01:26;;;;;;;12.83;6.03;;;3.90;99.90;;;;;;5028340;28;20460;-83
2023/12/10 02:03:55;;;;;;;6.60;5.10;;;3.90;99.90;;;;;;5007428;28;20237;-83
2023/12/10 02:06:25;;;;;;;8.03;5.00;;;3.90;99.90;;;;;;5006751;28;21784;-81
2023/12/10 02:08:52;;;;;;;7.20;5.63;;;3.90;99.90;;;;;;5007510;28;20218;-81
2023/12/10 02:11:19;;;;;;;9.03;5.80;;;3.90;99.90;;;;;;5022515;28;20226;-82
2023/12/10 02:13:47;;;;;;;118.50;12.87;;;4.00;99.90;;;;;;5025923;28;20224;-81
2023/12/10 02:16:13;;;;;;;6.83;5.07;;;4.00;99.90;;;;;;5002329;28;20693;-82
2023/12/10 02:18:40;;;;;;;13.43;5.73;;;4.00;99.90;;;;;;5005842;28;20226;-82
2023/12/10 02:21:09;;;;;;;21.00;5.77;;;4.00;99.90;;;;;;5005081;28;20771;-82
2023/12/10 02:23:59;;;;;;;53.40;8.20;;;4.10;99.90;;;;;;5022906;28;20234;-82
2023/12/10 02:26:28;;;;;;;9.17;4.90;;;4.10;99.90;;;;;;5020943;28;20235;-82
2023/12/10 02:28:55;;;;;;;7.93;5.20;;;4.10;99.90;;;;;;5017315;28;21060;-83
2023/12/10 02:31:24;;;;;;;23.43;6.53;;;4.20;99.90;;;;;;5022391;28;20230;-82
2023/12/10 02:33:51;;;;;;;18.83;5.77;;;4.20;99.90;;;;;;5002808;28;20494;-82
2023/12/10 02:36:18;;;;;;;12.77;5.43;;;4.20;99.90;;;;;;4999446;28;20253;-81
2023/12/10 02:38:46;;;;;;;17.80;5.77;;;4.20;99.90;;;;;;5016292;28;20700;-82
2023/12/10 02:41:13;;;;;;;16.37;5.70;;;4.30;99.90;;;;;;5024521;28;20312;-82
2023/12/10 02:43:41;;;;;;;5.63;5.00;;;4.30;99.90;;;;;;5022529;28;20258;-82
2023/12/10 02:46:08;;;;;;;6.77;5.07;;;4.30;99.90;;;;;;5005094;28;20889;-82
2023/12/10 02:48:35;;;;;;;7.20;5.10;;;4.40;99.90;;;;;;5007028;28;20594;-81
2023/12/10 02:51:02;;;;;;;6.40;5.13;;;4.30;99.90;;;;;;5023615;28;20230;-82
2023/12/10 02:53:29;;;;;;;23.80;6.93;;;4.40;99.90;;;;;;5023779;28;20288;-82
2023/12/10 02:55:57;;;;;;;8.17;5.30;;;4.40;99.90;;;;;;5011882;28;20225;-82
2023/12/10 02:58:24;;;;;;;6.77;4.70;;;4.40;99.90;;;;;;5021989;28;20231;-82
2023/12/10 03:00:52;;;;;;;16.30;6.00;;;4.50;99.90;;;;;;5022570;28;20222;-82
2023/12/10 03:03:19;;;;;;;11.73;5.40;;;4.50;99.90;;;;;;5019705;28;20235;-83
2023/12/10 03:05:49;;;;;;;8.67;5.33;;;4.50;99.90;;;;;;5011038;28;20222;-83
2023/12/10 03:08:15;;;;;;;9.50;5.33;;;4.50;99.90;;;;;;5005586;28;20223;-82
2023/12/10 03:10:42;;;;;;;12.37;5.70;;;4.50;99.90;;;;;;5013637;28;20232;-82
2023/12/10 03:13:09;;;;;;;8.70;5.33;;;4.50;99.90;;;;;;5014911;28;20224;-82
2023/12/10 03:15:36;;;;;;;10.13;5.70;;;4.50;99.90;;;;;;5012512;28;20231;-82
2023/12/10 03:18:05;;;;;;;38.77;8.00;;;4.50;99.90;;;;;;5009668;28;20240;-82
2023/12/10 03:20:32;;;;;;;12.40;6.00;;;4.50;99.90;;;;;;5002363;28;20801;-81
2023/12/10 03:22:59;;;;;;;8.53;5.53;;;4.50;99.90;;;;;;5007478;28;20274;-81
2023/12/10 03:25:25;;;;;;;15.83;5.93;;;4.50;99.90;;;;;;5023459;28;20236;-81
2023/12/10 03:27:52;;;;;;;22.07;6.00;;;4.50;99.90;;;;;;5016012;28;20228;-81
2023/12/10 03:30:19;;;;;;;19.30;6.10;;;4.50;99.90;;;;;;5005080;28;20319;-80
2023/12/10 03:32:46;;;;;;;9.77;4.90;;;4.50;99.90;;;;;;4996665;28;20228;-81
2023/12/10 03:35:14;;;;;;;10.93;5.57;;;4.50;99.90;;;;;;5006474;28;20647;-81
2023/12/10 03:37:41;;;;;;;12.90;5.53;;;4.50;99.90;;;;;;5003647;28;20221;-80
2023/12/10 03:40:09;;;;;;;14.37;6.10;;;4.50;99.90;;;;;;5005920;28;20229;-80
2023/12/10 03:42:36;;;;;;;17.93;6.23;;;4.50;99.90;;;;;;5003982;28;20318;-81
2023/12/10 03:45:03;;;;;;;11.07;5.97;;;4.60;99.90;;;;;;5004799;28;20250;-81
2023/12/10 03:47:29;;;;;;;11.20;6.17;;;4.60;99.90;;;;;;5002852;28;20848;-81
2023/12/10 03:49:56;;;;;;;15.07;6.00;;;4.60;99.90;;;;;;5005338;28;20220;-81
2023/12/10 03:52:25;;;;;;;17.50;5.77;;;4.60;99.90;;;;;;5004038;28;20753;-81
2023/12/10 03:54:51;;;;;;;14.03;5.73;;;4.60;99.90;;;;;;5003780;28;20229;-81
2023/12/10 03:57:18;;;;;;;12.73;5.33;;;4.70;99.90;;;;;;5003505;28;20236;-82
2023/12/10 03:59:45;;;;;;;15.20;5.40;;;4.70;99.90;;;;;;5031437;28;20238;-81
2023/12/10 04:02:10;;;;;;;21.23;5.70;;;4.70;99.90;;;;;;5027629;28;20791;-82
2023/12/10 04:04:37;;;;;;;11.90;5.57;;;4.70;99.90;;;;;;5036206;28;20254;-81
2023/12/10 04:07:04;;;;;;;15.00;5.80;;;4.80;99.90;;;;;;5029140;28;20301;-82
2023/12/10 04:09:33;;;;;;;17.17;6.27;;;4.80;99.90;;;;;;5027154;28;20695;-82
2023/12/10 04:12:00;;;;;;;22.23;5.57;;;4.80;99.90;;;;;;5011493;28;20311;-81
2023/12/10 04:14:27;;;;;;;15.77;5.23;;;4.80;99.90;;;;;;5023257;28;20235;-82
2023/12/10 04:16:55;;;;;;;20.03;5.90;;;4.80;99.90;;;;;;5010300;28;20266;-82
2023/12/10 04:19:21;;;;;;;18.63;5.80;;;4.80;99.90;;;;;;4987367;28;20640;-82
2023/12/10 04:21:48;;;;;;;19.67;5.67;;;4.80;99.90;;;;;;5023771;28;20694;-82
2023/12/10 04:24:16;;;;;;;17.63;5.77;;;4.80;99.90;;;;;;5022522;28;20252;-81
2023/12/10 04:26:44;;;;;;;22.20;5.57;;;4.80;99.90;;;;;;5022108;28;20223;-82
2023/12/10 04:29:10;;;;;;;17.07;5.53;;;4.80;99.90;;;;;;5005179;28;20222;-82
2023/12/10 04:31:37;;;;;;;20.03;5.43;;;4.80;99.90;;;;;;5018071;28;20285;-81
2023/12/10 04:34:04;;;;;;;15.53;5.13;;;4.80;99.90;;;;;;5018995;28;20870;-82
2023/12/10 04:36:31;;;;;;;22.90;5.80;;;4.80;99.90;;;;;;5022274;28;20351;-81
2023/12/10 04:38:58;;;;;;;17.43;5.77;;;4.80;99.90;;;;;;5002165;28;20710;-81
2023/12/10 04:41:25;;;;;;;27.97;6.10;;;4.80;99.90;;;;;;5012425;28;20314;-82
2023/12/10 04:43:53;;;;;;;19.70;6.10;;;4.80;99.90;;;;;;4985407;28;20285;-81
2023/12/10 04:46:20;;;;;;;23.23;6.20;;;4.80;99.90;;;;;;5005798;28;20248;-81
2023/12/10 04:48:47;;;;;;;21.87;5.87;;;4.80;99.90;;;;;;4993820;28;20334;-82
2023/12/10 04:51:14;;;;;;;17.43;5.60;;;4.80;99.90;;;;;;5004280;28;20248;-83
2023/12/10 04:53:40;;;;;;;19.73;5.07;;;4.80;99.90;;;;;;5016048;28;20235;-83
2023/12/10 04:56:08;;;;;;;24.07;5.40;;;4.80;99.90;;;;;;5015748;28;20309;-82
2023/12/10 04:58:35;;;;;;;21.20;5.20;;;4.90;99.90;;;;;;5026172;28;20787;-83
2023/12/10 05:01:04;;;;;;;19.60;5.13;;;4.90;99.90;;;;;;5011625;28;20262;-83
2023/12/10 05:03:31;;;;;;;27.17;5.20;;;4.90;99.90;;;;;;5020913;28;20235;-82
2023/12/10 05:05:58;;;;;;;18.60;5.00;;;5.00;99.90;;;;;;5010529;28;20305;-82
2023/12/10 05:08:25;;;;;;;20.87;5.20;;;5.00;99.90;;;;;;5022473;28;20803;-82
2023/12/10 05:10:52;;;;;;;27.50;5.43;;;5.00;99.90;;;;;;4999957;28;20226;-82
2023/12/10 05:13:18;;;;;;;21.00;4.37;;;5.00;99.90;;;;;;5025810;28;20233;-81
2023/12/10 05:15:45;;;;;;;23.43;4.10;;;5.10;99.90;;;;;;5009620;28;20241;-81
2023/12/10 05:18:15;;;;;;;21.50;5.00;;;5.10;99.90;;;;;;5024808;28;20265;-83
2023/12/10 05:20:43;;;;;;;20.93;4.70;;;5.20;99.90;;;;;;5022927;28;20278;-83
2023/12/10 05:23:10;;;;;;;19.63;5.23;;;5.20;99.90;;;;;;5022949;28;20231;-82
2023/12/10 05:25:37;;;;;;;26.03;4.27;;;5.20;99.90;;;;;;5024047;28;20883;-83
2023/12/10 05:28:03;;;;;;;19.23;4.17;;;5.30;99.90;;;;;;5023692;28;20285;-82
2023/12/10 05:30:30;;;;;;;24.83;5.00;;;5.30;99.90;;;;;;5003147;28;20338;-83
2023/12/10 05:32:57;;;;;;;21.90;4.13;;;5.30;99.90;;;;;;5018230;28;20514;-82
2023/12/10 05:35:25;;;;;;;25.63;4.80;;;5.40;99.90;;;;;;5025383;28;20239;-83
2023/12/10 05:37:52;;;;;;;25.87;4.40;;;5.40;99.90;;;;;;5019486;28;20248;-83
2023/12/10 05:40:19;;;;;;;22.60;4.73;;;5.40;99.90;;;;;;5023022;28;20228;-82
2023/12/10 05:42:45;;;;;;;20.60;4.20;;;5.40;99.90;;;;;;5009523;28;20271;-84
2023/12/10 05:45:12;;;;;;;23.70;4.50;;;5.50;99.90;;;;;;5001631;28;20300;-83
2023/12/10 05:47:39;;;;;;;16.43;3.93;;;5.50;99.90;;;;;;5020927;28;20259;-83
2023/12/10 05:50:06;;;;;;;29.70;5.20;;;5.50;99.90;;;;;;5021036;28;20242;-83
2023/12/10 05:52:34;;;;;;;28.30;4.33;;;5.50;99.90;;;;;;5008601;28;20231;-81
2023/12/10 05:55:01;;;;;;;19.03;3.93;;;5.60;99.90;;;;;;5003502;28;20964;-83
2023/12/10 05:57:28;;;;;;;20.00;4.10;;;5.60;99.90;;;;;;4991546;28;20723;-81
2023/12/10 05:59:55;;;;;;;22.93;4.60;;;5.60;99.90;;;;;;5008034;28;20222;-83
2023/12/10 06:02:22;;;;;;;22.93;4.27;;;5.60;99.90;;;;;;5007827;28;20292;-84
2023/12/10 06:04:49;;;;;;;23.00;5.13;;;5.60;99.90;;;;;;5023500;28;20299;-83
2023/12/10 06:07:17;;;;;;;23.03;5.20;;;5.60;99.90;;;;;;5019203;28;20310;-83
2023/12/10 06:09:45;;;;;;;24.17;5.00;;;5.70;99.90;;;;;;4997624;28;20228;-82
2023/12/10 06:12:12;;;;;;;20.77;4.30;;;5.70;99.90;;;;;;4997093;28;20230;-84
2023/12/10 06:14:39;;;;;;;27.40;4.73;;;5.70;99.90;;;;;;5002566;28;20225;-84
2023/12/10 06:17:06;;;;;;;27.53;4.90;;;5.70;99.90;;;;;;4990544;28;20745;-84
2023/12/10 06:19:33;;;;;;;18.43;4.30;;;5.70;99.90;;;;;;4985354;28;20235;-84
2023/12/10 06:22:01;;;;;;;21.70;4.27;;;5.80;99.90;;;;;;5004744;28;20222;-83
2023/12/10 06:24:28;;;;;;;17.73;4.37;;;5.80;99.90;;;;;;4984978;28;20312;-84
2023/12/10 06:26:56;;;;;;;25.80;4.77;;;5.80;99.90;;;;;;5000118;28;20227;-84
2023/12/10 06:29:23;;;;;;;19.70;4.70;;;5.80;99.90;;;;;;5001039;28;20237;-83
2023/12/10 06:31:50;;;;;;;16.67;3.80;;;5.80;99.90;;;;;;5019134;28;20310;-83
2023/12/10 06:34:17;;;;;;;20.27;4.07;;;5.80;99.90;;;;;;5015865;28;20282;-82
2023/12/10 06:36:44;;;;;;;20.63;3.87;;;5.90;99.90;;;;;;5015818;28;20225;-82
2023/12/10 06:39:11;;;;;;;22.03;4.03;;;5.90;99.90;;;;;;5018092;28;20229;-83
2023/12/10 06:41:38;;;;;;;19.03;4.47;;;5.90;99.90;;;;;;5009756;28;20226;-83
2023/12/10 06:44:09;;;;;;;21.37;4.07;;;5.90;99.90;;;;;;5009661;28;20234;-83
2023/12/10 06:46:39;;;;;;;23.13;4.67;;;5.90;99.90;;;;;;5016644;28;20626;-83
2023/12/10 06:49:05;;;;;;;21.67;3.67;;;5.90;99.90;;;;;;5020969;28;20243;-83
2023/12/10 06:51:32;;;;;;;16.87;4.20;;;6.00;99.90;;;;;;4993103;28;20243;-83
2023/12/10 06:53:59;;;;;;;17.40;4.23;;;5.90;99.90;;;;;;5012198;28;20233;-83
2023/12/10 06:56:26;;;;;;;24.60;4.07;;;5.90;99.90;;;;;;5004445;28;20549;-83
2023/12/10 06:58:53;;;;;;;20.50;4.10;;;5.90;99.90;;;;;;5029746;28;20225;-83
2023/12/10 07:01:21;;;;;;;16.90;3.57;;;6.00;99.90;;;;;;5007536;28;20669;-83
2023/12/10 07:03:48;;;;;;;17.27;4.50;;;6.00;99.90;;;;;;4992929;28;20233;-84
2023/12/10 07:06:15;;;;;;;23.13;4.27;;;6.00;99.90;;;;;;5028476;28;20287;-85
2023/12/10 07:08:41;;;;;;;16.67;3.70;;;6.00;99.90;;;;;;5009327;28;20758;-84
2023/12/10 07:11:10;;;;;;;19.40;3.57;;;6.00;99.90;;;;;;4993157;28;20245;-85
2023/12/10 07:13:37;;;;;;;18.97;4.23;;;6.00;99.90;;;;;;5017345;28;20649;-85
2023/12/10 07:16:05;;;;;;;13.33;3.20;;;5.90;99.90;;;;;;5013313;28;20256;-84
2023/12/10 07:18:33;;;;;;;15.77;3.60;;;6.00;99.90;;;;;;5004120;28;20694;-84
2023/12/10 07:21:00;;;;;;;16.23;3.27;;;6.00;99.90;;;;;;4998197;28;20318;-84
2023/12/10 07:23:26;;;;;;;17.20;3.73;;;6.00;99.90;;;;;;5029616;28;20232;-84
2023/12/10 07:25:53;;;;;;;13.07;3.30;;;6.00;99.90;;;;;;5012995;28;20225;-84
2023/12/10 07:28:20;;;;;;;13.80;3.27;;;6.00;99.90;;;;;;5022149;28;20357;-84
2023/12/10 07:30:47;;;;;;;17.47;3.57;;;6.00;99.90;;;;;;5008334;28;20250;-84
2023/12/10 07:33:13;;;;;;;16.90;5.43;;;6.00;99.90;;;;;;5028397;28;20336;-84
2023/12/10 07:35:42;;;;;;;15.33;3.30;;;6.00;99.90;;;;;;5025699;28;20299;-85
2023/12/10 07:38:09;;;;;;;15.50;4.43;;;6.00;99.90;;;;;;5016854;28;20227;-84
2023/12/10 07:40:35;;;;;;;16.10;3.37;;;6.00;99.90;;;;;;5011358;28;20220;-83
2023/12/10 07:43:02;;;;;;;17.03;3.93;;;6.10;99.90;;;;;;4995926;28;20253;-83
2023/12/10 07:45:29;;;;;;;12.93;3.13;;;6.00;99.90;;;;;;5011584;28;20226;-83
2023/12/10 07:47:56;;;;;;;9.47;3.30;;;6.00;99.90;;;;;;5027197;28;20501;-83
2023/12/10 07:50:23;;;;;;;11.37;3.10;;;6.10;99.90;;;;;;5015679;28;20225;-82
2023/12/10 07:52:51;;;;;;;13.10;2.80;;;6.10;99.90;;;;;;5014220;28;20312;-84
2023/12/10 07:55:18;;;;;;;11.60;4.00;;;6.00;99.90;;;;;;4998879;28;20726;-84
2023/12/10 07:57:45;;;;;;;11.37;2.93;;;6.10;99.90;;;;;;5016214;28;20233;-84
2023/12/10 08:00:13;;;;;;;10.33;3.07;;;6.00;99.90;;;;;;5019385;28;20707;-85
2023/12/10 08:02:40;;;;;;;9.53;2.80;;;6.10;99.90;;;;;;4998191;28;20232;-83
2023/12/10 08:05:08;;;;;;;14.57;3.53;;;6.10;99.90;;;;;;5010174;28;20757;-84
2023/12/10 08:07:35;;;;;;;23.53;4.47;;;6.10;99.90;;;;;;5027396;28;20730;-84
2023/12/10 08:10:05;;;;;;;19.77;3.63;;;6.10;99.90;;;;;;5016362;28;20224;-85
2023/12/10 08:12:32;;;;;;;24.37;3.43;;;6.10;99.90;;;;;;5016503;28;20300;-85
2023/12/10 08:14:59;;;;;;;12.00;2.90;;;6.10;99.90;;;;;;5024620;28;20249;-82
2023/12/10 08:17:26;;;;;;;13.00;2.60;;;6.10;99.90;;;;;;5017195;28;20213;-82
2023/12/10 08:19:53;;;;;;;12.77;3.23;;;6.10;99.90;;;;;;5001755;28;20309;-83
2023/12/10 08:22:20;;;;;;;25.03;4.37;;;6.10;99.90;;;;;;5021233;28;20228;-83
2023/12/10 08:24:47;;;;;;;12.23;3.00;;;6.20;99.90;;;;;;5019013;28;20230;-83
2023/12/10 08:27:15;;;;;;;13.27;2.90;;;6.20;99.90;;;;;;5020576;28;20299;-82
2023/12/10 08:29:42;;;;;;;6.90;2.30;;;6.20;99.90;;;;;;5015064;28;20309;-82
2023/12/10 08:32:09;;;;;;;8.50;2.60;;;6.20;99.90;;;;;;5024992;28;20224;-82
2023/12/10 08:34:36;;;;;;;10.63;2.77;;;6.20;99.90;;;;;;5001483;28;20884;-83
2023/12/10 08:37:03;;;;;;;9.20;2.30;;;6.20;99.90;;;;;;5003932;28;20288;-84
2023/12/10 08:39:30;;;;;;;13.33;2.50;;;6.30;99.90;;;;;;5005489;28;20535;-84
2023/12/10 08:41:57;;;;;;;9.40;2.40;;;6.30;99.90;;;;;;5025517;28;20552;-83
2023/12/10 08:44:29;;;;;;;7.73;2.23;;;6.30;99.90;;;;;;4999898;28;20232;-83
2023/12/10 08:46:56;;;;;;;8.90;2.20;;;6.20;99.90;;;;;;5000427;28;20225;-82
2023/12/10 08:49:22;;;;;;;6.03;1.90;;;6.30;99.90;;;;;;5002952;28;20256;-83
2023/12/10 08:51:49;;;;;;;6.97;2.53;;;6.30;99.90;;;;;;5018130;28;20647;-83
2023/12/10 08:54:16;;;;;;;9.03;2.10;;;6.30;99.90;;;;;;5004656;28;20241;-83
2023/12/10 08:56:43;;;;;;;7.97;2.17;;;6.30;99.90;;;;;;5020166;28;20648;-83
2023/12/10 08:59:10;;;;;;;9.17;2.27;;;6.30;99.90;;;;;;5018878;28;20260;-83
2023/12/10 09:01:38;;;;;;;5.70;2.30;;;6.30;99.90;;;;;;5005437;28;20260;-83
2023/12/10 09:04:05;;;;;;;5.53;2.07;;;6.30;99.90;;;;;;5008918;28;20319;-83
2023/12/10 09:06:32;;;;;;;7.90;2.07;;;6.30;99.90;;;;;;5006204;28;20233;-83
2023/12/10 09:08:59;;;;;;;4.40;1.70;;;6.30;99.90;;;;;;4997735;28;20262;-83
2023/12/10 09:11:27;;;;;;;7.70;2.20;;;6.30;99.90;;;;;;4999409;28;20224;-83
2023/12/10 09:13:54;;;;;;;7.30;1.90;;;6.30;99.90;;;;;;5007564;28;20221;-84
2023/12/10 09:16:21;;;;;;;6.90;2.17;;;6.30;99.90;;;;;;4998957;28;20309;-83
2023/12/10 09:18:50;;;;;;;8.10;2.50;;;6.30;99.90;;;;;;5020066;28;20217;-83
2023/12/10 09:21:17;;;;;;;6.67;1.90;;;6.30;99.90;;;;;;4999841;28;20687;-83
2023/12/10 09:23:44;;;;;;;7.70;1.90;;;6.30;99.90;;;;;;4993027;28;20235;-83
2023/12/10 09:26:11;;;;;;;7.80;2.03;;;6.30;99.90;;;;;;4997688;28;20223;-83
2023/12/10 09:28:38;;;;;;;5.53;1.97;;;6.30;99.90;;;;;;5016077;28;20714;-83
2023/12/10 09:31:05;;;;;;;4.87;1.90;;;6.30;99.90;;;;;;5012458;28;20221;-83
2023/12/10 09:33:31;;;;;;;7.37;2.37;;;6.40;99.90;;;;;;5023283;28;20317;-83
2023/12/10 09:36:00;;;;;;;5.77;2.27;;;6.30;99.90;;;;;;5021198;28;20221;-83
2023/12/10 09:38:26;;;;;;;11.43;2.73;;;6.30;99.90;;;;;;5021463;28;20231;-82
2023/12/10 09:40:53;;;;;;;7.20;2.20;;;6.30;99.90;;;;;;5000703;28;20798;-83
2023/12/10 09:43:21;;;;;;;6.07;2.47;;;6.30;99.90;;;;;;5018696;28;20257;-83
2023/12/10 09:45:48;;;;;;;5.73;2.10;;;6.30;99.90;;;;;;5018434;28;20229;-83
2023/12/10 09:48:15;;;;;;;8.90;2.30;;;6.40;99.90;;;;;;4986927;28;20281;-83
2023/12/10 09:50:42;;;;;;;7.53;2.20;;;6.40;99.90;;;;;;5020184;28;20696;-82
2023/12/10 09:53:10;;;;;;;6.60;2.10;;;6.40;99.90;;;;;;5005132;28;20230;-83
2023/12/10 09:55:38;;;;;;;8.70;2.73;;;6.40;99.90;;;;;;5008192;28;20229;-82
2023/12/10 09:58:04;;;;;;;8.17;1.97;;;6.40;99.90;;;;;;5025044;28;20326;-82
2023/12/10 10:00:31;;;;;;;7.30;2.47;;;6.50;99.90;;;;;;5020738;28;20228;-82
2023/12/10 10:03:02;;;;;;;6.67;1.80;;;6.50;99.90;;;;;;5029611;28;20310;-82
2023/12/10 10:05:29;;;;;;;7.37;1.90;;;6.50;99.90;;;;;;5022655;28;20304;-82
2023/12/10 10:07:56;;;;;;;6.97;2.10;;;6.60;99.90;;;;;;5024754;28;20222;-83
2023/12/10 10:10:25;;;;;;;8.43;2.90;;;6.60;99.90;;;;;;5026415;28;20224;-83
2023/12/10 10:12:54;;;;;;;6.40;1.90;;;6.60;99.90;;;;;;5027854;28;20318;-83
2023/12/10 10:15:26;;;;;;;21.17;11.50;;;6.60;99.90;;;;;;5031946;28;20248;-83
2023/12/10 10:17:53;;;;;;;29.77;16.13;;;6.60;99.90;;;;;;5017370;28;21180;-83
2023/12/10 10:20:22;;;;;;;19.60;9.10;;;6.70;99.90;;;;;;5032631;28;20224;-83
2023/12/10 10:22:49;;;;;;;27.67;15.40;;;6.70;99.90;;;;;;5010741;28;20254;-83
2023/12/10 10:25:16;;;;;;;15.37;11.70;;;6.70;99.90;;;;;;5007871;28;20224;-83
2023/12/10 10:27:44;;;;;;;11.40;5.60;;;6.80;99.90;;;;;;5014684;28;20312;-82
2023/12/10 10:30:11;;;;;;;7.27;2.57;;;6.80;99.90;;;;;;5034385;28;20255;-83
2023/12/10 10:32:40;;;;;;;6.00;2.03;;;6.80;99.90;;;;;;5010350;28;20263;-82
2023/12/10 10:35:08;;;;;;;5.07;2.17;;;6.80;99.90;;;;;;5031339;28;20312;-83
2023/12/10 10:37:35;;;;;;;6.17;2.40;;;6.80;99.90;;;;;;5009850;28;20222;-83
2023/12/10 10:40:04;;;;;;;4.90;2.10;;;6.80;99.90;;;;;;5024868;28;20818;-85
2023/12/10 10:42:30;;;;;;;12.87;6.33;;;6.90;99.90;;;;;;5014274;28;20305;-84
2023/12/10 10:44:59;;;;;;;20.73;11.37;;;6.90;99.90;;;;;;5029054;28;20297;-83
2023/12/10 10:47:28;;;;;;;10.70;5.23;;;7.00;99.90;;;;;;5012228;28;20326;-83
2023/12/10 10:49:57;;;;;;;11.23;6.57;;;6.90;99.90;;;;;;5011609;28;20282;-84
2023/12/10 10:52:27;;;;;;;19.80;9.37;;;6.90;99.90;;;;;;5026337;28;20314;-82
2023/12/10 10:54:55;;;;;;;11.97;6.63;;;7.00;99.90;;;;;;5023381;28;20234;-82
2023/12/10 10:57:29;;;;;;;37.53;14.53;;;7.00;99.90;;;;;;5018917;28;22001;-84
2023/12/10 10:59:56;;;;;;;111.20;14.73;;;7.10;99.90;;;;;;5030813;28;20218;-84
2023/12/10 11:02:24;;;;;;;22.80;14.00;;;7.00;99.90;;;;;;5006110;28;20257;-84
2023/12/10 11:04:51;;;;;;;8.20;4.60;;;7.00;99.90;;;;;;5007912;28;20771;-83
2023/12/10 11:07:20;;;;;;;10.00;3.90;;;7.10;99.90;;;;;;5006522;28;20730;-87
2023/12/10 11:09:58;;;;;;;7.97;3.20;;;7.10;99.90;;;;;;5026114;28;20230;-86
2023/12/10 11:12:46;;;;;;;8.30;2.67;;;7.10;99.90;;;;;;5027626;28;20227;-85
2023/12/10 11:15:27;;;;;;;3.17;2.03;;;7.10;99.90;;;;;;5024222;28;20240;-85
2023/12/10 11:17:58;;;;;;;3.87;2.63;;;7.10;99.90;;;;;;5023427;28;20666;-85
2023/12/10 11:20:38;;;;;;;4.47;2.60;;;7.10;99.90;;;;;;5032531;28;20228;-85
2023/12/10 11:23:06;;;;;;;4.07;2.60;;;7.10;99.90;;;;;;5029769;28;20223;-85
2023/12/10 11:25:33;;;;;;;3.20;2.40;;;7.20;99.90;;;;;;5010902;28;20241;-84
2023/12/10 11:28:07;;;;;;;7.00;2.67;;;7.20;99.90;;;;;;5022858;28;20301;-85
2023/12/10 11:30:33;;;;;;;4.07;2.50;;;7.10;99.90;;;;;;4995787;28;20306;-85
2023/12/10 11:33:02;;;;;;;3.80;2.43;;;7.20;99.90;;;;;;5001914;28;20285;-85
2023/12/10 11:35:29;;;;;;;4.07;2.93;;;7.20;99.90;;;;;;5022481;28;20264;-85
2023/12/10 11:37:55;;;;;;;4.90;3.27;;;7.20;99.90;;;;;;5024351;28;20276;-85
2023/12/10 11:40:22;;;;;;;6.73;3.53;;;7.20;99.90;;;;;;5026512;28;20308;-85
2023/12/10 11:42:49;;;;;;;3.37;2.40;;;7.30;99.90;;;;;;5024853;28;20224;-86
2023/12/10 11:45:16;;;;;;;2.37;2.17;;;7.30;99.90;;;;;;5009160;28;20291;-86
2023/12/10 11:47:43;;;;;;;4.47;2.43;;;7.40;99.90;;;;;;5028072;28;20577;-85
2023/12/10 11:50:13;;;;;;;3.27;2.20;;;7.50;99.90;;;;;;5009542;28;20308;-85
2023/12/10 11:52:40;;;;;;;2.07;1.80;;;7.50;99.90;;;;;;5024612;28;20640;-85
2023/12/10 11:55:08;;;;;;;3.20;1.73;;;7.60;99.90;;;;;;5007834;28;20252;-84
2023/12/10 11:57:35;;;;;;;5.40;2.10;;;7.60;99.90;;;;;;5006242;28;20225;-83
2023/12/10 12:00:04;;;;;;;5.43;2.87;;;7.60;99.90;;;;;;5009700;28;20218;-85
2023/12/10 12:02:43;;;;;;;7.07;2.57;;;7.60;99.90;;;;;;5009409;28;20225;-85
2023/12/10 12:05:12;;;;;;;3.93;2.07;;;7.70;99.90;;;;;;5025262;28;20280;-85
2023/12/10 12:07:39;;;;;;;4.37;2.73;;;7.70;99.90;;;;;;5006039;28;20224;-85
2023/12/10 12:10:07;;;;;;;6.70;2.43;;;7.70;99.90;;;;;;4988123;28;20306;-84
2023/12/10 12:12:40;;;;;;;5.13;2.37;;;7.70;99.90;;;;;;4988963;28;20246;-84
2023/12/10 12:15:08;;;;;;;4.73;2.40;;;7.70;99.90;;;;;;4974504;28;20230;-84
2023/12/10 12:17:36;;;;;;;5.73;2.70;;;7.80;99.90;;;;;;5004413;28;20226;-84
2023/12/10 12:20:15;;;;;;;7.33;2.40;;;7.80;99.90;;;;;;5004124;28;20222;-84
2023/12/10 12:22:42;;;;;;;6.50;2.53;;;7.80;99.90;;;;;;4994740;28;20218;-85
2023/12/10 12:25:09;;;;;;;7.83;2.57;;;7.80;99.90;;;;;;4992669;28;20329;-84
2023/12/10 12:27:36;;;;;;;8.23;2.63;;;7.80;99.90;;;;;;5001868;28;20302;-84
2023/12/10 12:30:03;;;;;;;7.93;2.67;;;7.80;99.90;;;;;;5004733;28;20705;-85
2023/12/10 12:32:30;;;;;;;5.23;2.27;;;7.80;99.90;;;;;;5024763;28;20225;-84
2023/12/10 12:34:57;;;;;;;7.50;2.30;;;7.80;99.90;;;;;;5008419;28;20729;-85
2023/12/10 12:37:25;;;;;;;3.80;2.17;;;7.80;99.90;;;;;;4986614;28;20304;-85
2023/12/10 12:39:53;;;;;;;6.80;2.20;;;7.80;99.90;;;;;;5019529;28;20555;-85
2023/12/10 12:42:20;;;;;;;3.37;1.60;;;7.80;99.90;;;;;;5016101;28;20218;-83
2023/12/10 12:44:48;;;;;;;4.67;1.83;;;7.80;99.90;;;;;;5025674;28;20741;-84
2023/12/10 12:47:15;;;;;;;8.43;1.83;;;7.80;99.90;;;;;;5023782;28;20591;-85
2023/12/10 12:49:41;;;;;;;8.20;2.13;;;7.80;99.90;;;;;;5006353;28;20590;-85
2023/12/10 12:52:08;;;;;;;7.83;2.23;;;7.80;99.90;;;;;;5008034;28;20234;-84